createdAt,value
2023-04-19T00:00:26.676Z,23.53
2023-04-19T00:01:26.655Z,23.53
2023-04-19T00:02:26.738Z,23.54
2023-04-19T00:03:26.772Z,23.53
2023-04-19T00:04:26.633Z,23.53
2023-04-19T00:05:26.505Z,23.53
2023-04-19T00:06:26.373Z,23.53
2023-04-19T00:07:26.324Z,23.52
2023-04-19T00:08:26.270Z,23.52
2023-04-19T00:09:26.213Z,23.53
2023-04-19T00:10:26.158Z,23.52
2023-04-19T00:11:26.100Z,23.52
2023-04-19T00:12:26.046Z,23.51
2023-04-19T00:13:26.004Z,23.52
2023-04-19T00:14:26.043Z,23.52
2023-04-19T00:15:26.051Z,23.52
2023-04-19T00:16:26.096Z,23.52
2023-04-19T00:17:26.105Z,23.52
2023-04-19T00:18:26.049Z,23.52
2023-04-19T00:19:26.063Z,23.52
2023-04-19T00:20:26.059Z,23.51
2023-04-19T00:21:26.097Z,23.51
2023-04-19T00:22:26.113Z,23.51
2023-04-19T00:23:26.091Z,23.51
2023-04-19T00:24:26.091Z,23.51
2023-04-19T00:25:26.091Z,23.51
2023-04-19T00:26:26.105Z,23.52
2023-04-19T00:27:26.098Z,23.51
2023-04-19T00:28:26.161Z,23.51
2023-04-19T00:29:26.113Z,23.51
2023-04-19T00:30:26.128Z,23.51
2023-04-19T00:31:26.196Z,23.51
2023-04-19T00:32:26.106Z,23.50
2023-04-19T00:33:26.035Z,23.50
2023-04-19T00:34:25.980Z,23.51
2023-04-19T00:35:25.915Z,23.50
2023-04-19T00:36:25.856Z,23.51
2023-04-19T00:37:25.802Z,23.50
2023-04-19T00:38:25.740Z,23.49
2023-04-19T00:39:25.693Z,23.50
2023-04-19T00:40:25.633Z,23.49
2023-04-19T00:41:25.574Z,23.50
2023-04-19T00:42:25.558Z,23.50
2023-04-19T00:43:25.561Z,23.50
2023-04-19T00:44:25.582Z,23.50
2023-04-19T00:45:25.593Z,23.50
2023-04-19T00:46:25.614Z,23.51
2023-04-19T00:47:25.642Z,23.51
2023-04-19T00:48:25.599Z,23.50
2023-04-19T00:49:25.628Z,23.50
2023-04-19T00:50:25.626Z,23.50
2023-04-19T00:51:25.646Z,23.50
2023-04-19T00:52:25.653Z,23.50
2023-04-19T00:53:25.668Z,23.49
2023-04-19T00:54:25.726Z,23.50
2023-04-19T00:55:25.689Z,23.50
2023-04-19T00:56:25.695Z,23.49
2023-04-19T00:57:25.724Z,23.49
2023-04-19T00:58:25.709Z,23.50
2023-04-19T00:59:25.741Z,23.49
2023-04-19T01:00:25.736Z,23.49
2023-04-19T01:01:25.762Z,23.49
2023-04-19T01:02:25.890Z,23.48
2023-04-19T01:03:25.861Z,23.48
2023-04-19T01:04:25.852Z,23.47
2023-04-19T01:05:25.810Z,23.48
2023-04-19T01:06:25.821Z,23.47
2023-04-19T01:07:25.835Z,23.47
2023-04-19T01:08:25.827Z,23.47
2023-04-19T01:09:25.819Z,23.48
2023-04-19T01:10:25.768Z,23.47
2023-04-19T01:11:25.776Z,23.47
2023-04-19T01:12:25.775Z,23.47
2023-04-19T01:13:25.703Z,23.46
2023-04-19T01:14:25.665Z,23.46
2023-04-19T01:15:25.602Z,23.46
2023-04-19T01:16:25.646Z,23.46
2023-04-19T01:17:25.538Z,23.46
2023-04-19T01:18:25.413Z,23.46
2023-04-19T01:19:25.357Z,23.46
2023-04-19T01:20:25.303Z,23.46
2023-04-19T01:21:25.230Z,23.46
2023-04-19T01:22:25.196Z,23.45
2023-04-19T01:23:25.123Z,23.45
2023-04-19T01:24:25.100Z,23.46
2023-04-19T01:25:25.014Z,23.45
2023-04-19T01:26:24.949Z,23.44
2023-04-19T01:27:24.892Z,23.44
2023-04-19T01:28:24.870Z,23.44
2023-04-19T01:29:24.806Z,23.45
2023-04-19T01:30:24.817Z,23.45
2023-04-19T01:31:24.880Z,23.45
2023-04-19T01:32:24.825Z,23.44
2023-04-19T01:33:24.793Z,23.46
2023-04-19T01:34:24.736Z,23.45
2023-04-19T01:35:24.719Z,23.45
2023-04-19T01:36:24.729Z,23.45
2023-04-19T01:37:24.715Z,23.44
2023-04-19T01:38:24.647Z,23.43
2023-04-19T01:39:24.591Z,23.43
2023-04-19T01:40:24.547Z,23.43
2023-04-19T01:41:24.504Z,23.44
2023-04-19T01:42:24.437Z,23.44
2023-04-19T01:43:24.388Z,23.44
2023-04-19T01:44:24.334Z,23.44
2023-04-19T01:45:24.371Z,23.43
2023-04-19T01:46:24.280Z,23.43
2023-04-19T01:47:24.296Z,23.43
2023-04-19T01:48:24.293Z,23.43
2023-04-19T01:49:24.301Z,23.42
2023-04-19T01:50:24.330Z,23.42
2023-04-19T01:51:24.326Z,23.43
2023-04-19T01:52:24.344Z,23.43
2023-04-19T01:53:24.315Z,23.42
2023-04-19T01:54:24.296Z,23.42
2023-04-19T01:55:24.333Z,23.42
2023-04-19T01:56:24.322Z,23.41
2023-04-19T01:57:24.252Z,23.42
2023-04-19T01:58:24.216Z,23.41
2023-04-19T01:59:24.223Z,23.41
2023-04-19T02:00:24.195Z,23.41
2023-04-19T02:01:24.283Z,23.41
2023-04-19T02:02:24.347Z,23.40
2023-04-19T02:03:24.479Z,23.41
2023-04-19T02:04:24.305Z,23.40
2023-04-19T02:05:24.268Z,23.41
2023-04-19T02:06:24.328Z,23.41
2023-04-19T02:07:24.293Z,23.41
2023-04-19T02:08:24.318Z,23.41
2023-04-19T02:09:24.325Z,23.40
2023-04-19T02:10:24.339Z,23.40
2023-04-19T02:11:24.356Z,23.40
2023-04-19T02:12:24.356Z,23.40
2023-04-19T02:13:24.378Z,23.40
2023-04-19T02:14:24.372Z,23.40
2023-04-19T02:15:24.356Z,23.41
2023-04-19T02:16:24.296Z,23.40
2023-04-19T02:17:24.236Z,23.41
2023-04-19T02:18:24.174Z,23.41
2023-04-19T02:19:24.134Z,23.41
2023-04-19T02:20:24.108Z,23.41
2023-04-19T02:21:24.038Z,23.41
2023-04-19T02:22:23.984Z,23.41
2023-04-19T02:23:23.940Z,23.41
2023-04-19T02:24:23.889Z,23.40
2023-04-19T02:25:23.860Z,23.40
2023-04-19T02:26:23.832Z,23.41
2023-04-19T02:27:23.794Z,23.40
2023-04-19T02:28:23.786Z,23.40
2023-04-19T02:29:23.752Z,23.40
2023-04-19T02:30:23.706Z,23.40
2023-04-19T02:31:23.748Z,23.40
2023-04-19T02:32:23.703Z,23.40
2023-04-19T02:33:23.605Z,23.40
2023-04-19T02:34:23.558Z,23.40
2023-04-19T02:35:23.517Z,23.40
2023-04-19T02:36:23.496Z,23.40
2023-04-19T02:37:23.466Z,23.40
2023-04-19T02:38:23.476Z,23.41
2023-04-19T02:39:23.492Z,23.40
2023-04-19T02:40:23.510Z,23.39
2023-04-19T02:41:23.521Z,23.40
2023-04-19T02:42:23.528Z,23.39
2023-04-19T02:43:23.542Z,23.39
2023-04-19T02:44:23.570Z,23.38
2023-04-19T02:45:23.555Z,23.36
2023-04-19T02:46:23.605Z,23.35
2023-04-19T02:47:23.579Z,23.33
2023-04-19T02:48:23.571Z,23.31
2023-04-19T02:49:23.535Z,23.28
2023-04-19T02:50:23.493Z,23.24
2023-04-19T02:51:23.478Z,23.19
2023-04-19T02:52:23.449Z,23.11
2023-04-19T02:53:23.444Z,23.03
2023-04-19T02:54:23.433Z,22.97
2023-04-19T02:55:23.425Z,22.90
2023-04-19T02:56:23.411Z,22.85
2023-04-19T02:57:23.416Z,22.78
2023-04-19T02:58:23.416Z,22.74
2023-04-19T02:59:23.429Z,22.70
2023-04-19T03:00:23.432Z,22.64
2023-04-19T03:01:23.458Z,22.60
2023-04-19T03:02:23.505Z,22.56
2023-04-19T03:03:23.562Z,22.55
2023-04-19T03:04:23.549Z,22.52
2023-04-19T03:05:23.500Z,22.49
2023-04-19T03:06:23.517Z,22.46
2023-04-19T03:07:23.544Z,22.45
2023-04-19T03:08:23.590Z,22.41
2023-04-19T03:09:23.609Z,22.39
2023-04-19T03:10:23.629Z,22.36
2023-04-19T03:11:23.639Z,22.34
2023-04-19T03:12:23.652Z,22.33
2023-04-19T03:13:23.698Z,22.31
2023-04-19T03:14:23.741Z,22.27
2023-04-19T03:15:23.776Z,22.26
2023-04-19T03:16:23.815Z,22.24
2023-04-19T03:17:23.757Z,22.24
2023-04-19T03:18:23.745Z,22.23
2023-04-19T03:19:23.806Z,22.22
2023-04-19T03:20:23.815Z,22.20
2023-04-19T03:21:23.802Z,22.18
2023-04-19T03:22:23.804Z,22.15
2023-04-19T03:23:23.790Z,22.12
2023-04-19T03:24:23.796Z,22.12
2023-04-19T03:25:23.775Z,22.10
2023-04-19T03:26:23.760Z,22.09
2023-04-19T03:27:23.719Z,22.08
2023-04-19T03:28:23.702Z,22.06
2023-04-19T03:29:23.690Z,22.05
2023-04-19T03:30:23.651Z,22.05
2023-04-19T03:31:23.679Z,22.03
2023-04-19T03:32:23.715Z,22.02
2023-04-19T03:33:23.635Z,22.00
2023-04-19T03:34:23.621Z,21.98
2023-04-19T03:35:23.590Z,21.97
2023-04-19T03:36:23.590Z,21.97
2023-04-19T03:37:23.559Z,21.96
2023-04-19T03:38:23.562Z,21.94
2023-04-19T03:39:23.582Z,21.95
2023-04-19T03:40:23.542Z,21.95
2023-04-19T03:41:23.511Z,21.92
2023-04-19T03:42:23.522Z,21.90
2023-04-19T03:43:23.496Z,21.89
2023-04-19T03:44:23.514Z,21.86
2023-04-19T03:45:23.504Z,21.88
2023-04-19T03:46:23.533Z,21.86
2023-04-19T03:47:23.540Z,21.87
2023-04-19T03:48:23.490Z,21.86
2023-04-19T03:49:23.509Z,21.85
2023-04-19T03:50:23.508Z,21.85
2023-04-19T03:51:23.493Z,21.84
2023-04-19T03:52:23.508Z,21.83
2023-04-19T03:53:23.550Z,21.83
2023-04-19T03:54:23.565Z,21.81
2023-04-19T03:55:23.563Z,21.80
2023-04-19T03:56:23.584Z,21.80
2023-04-19T03:57:23.607Z,21.79
2023-04-19T03:58:23.652Z,21.78
2023-04-19T03:59:23.674Z,21.77
2023-04-19T04:00:23.667Z,21.76
2023-04-19T04:01:23.702Z,21.74
2023-04-19T04:02:23.797Z,21.74
2023-04-19T04:03:23.942Z,21.74
2023-04-19T04:04:23.934Z,21.74
2023-04-19T04:05:23.740Z,21.72
2023-04-19T04:06:23.748Z,21.74
2023-04-19T04:07:23.743Z,21.73
2023-04-19T04:08:23.750Z,21.73
2023-04-19T04:09:23.760Z,21.72
2023-04-19T04:10:23.757Z,21.72
2023-04-19T04:11:23.768Z,21.70
2023-04-19T04:12:23.773Z,21.69
2023-04-19T04:13:23.789Z,21.69
2023-04-19T04:14:23.795Z,21.68
2023-04-19T04:15:23.807Z,21.68
2023-04-19T04:16:23.872Z,21.69
2023-04-19T04:17:23.801Z,21.76
2023-04-19T04:18:23.772Z,21.88
2023-04-19T04:19:23.783Z,21.97
2023-04-19T04:20:23.807Z,22.06
2023-04-19T04:21:23.808Z,22.15
2023-04-19T04:22:23.837Z,22.22
2023-04-19T04:23:23.817Z,22.28
2023-04-19T04:24:23.830Z,22.34
2023-04-19T04:25:23.818Z,22.39
2023-04-19T04:26:23.810Z,22.43
2023-04-19T04:27:23.850Z,22.47
2023-04-19T04:28:23.818Z,22.49
2023-04-19T04:29:23.824Z,22.52
2023-04-19T04:30:25.896Z,22.54
2023-04-19T04:31:23.787Z,22.54
2023-04-19T04:32:23.847Z,22.55
2023-04-19T04:33:23.677Z,22.55
2023-04-19T04:34:23.627Z,22.56
2023-04-19T04:35:23.588Z,22.56
2023-04-19T04:36:23.532Z,22.58
2023-04-19T04:37:23.479Z,22.58
2023-04-19T04:38:24.933Z,22.58
2023-04-19T04:39:23.414Z,22.59
2023-04-19T04:40:23.354Z,22.59
2023-04-19T04:41:23.318Z,22.60
2023-04-19T04:42:23.269Z,22.59
2023-04-19T04:43:23.235Z,22.61
2023-04-19T04:44:23.302Z,22.60
2023-04-19T04:45:23.153Z,22.61
2023-04-19T04:46:23.193Z,22.60
2023-04-19T04:47:23.065Z,22.60
2023-04-19T04:48:22.993Z,22.60
2023-04-19T04:49:22.945Z,22.60
2023-04-19T04:50:22.885Z,22.60
2023-04-19T04:51:22.847Z,22.59
2023-04-19T04:52:22.842Z,22.56
2023-04-19T04:53:22.759Z,22.51
2023-04-19T04:54:22.723Z,22.45
2023-04-19T04:55:22.686Z,22.41
2023-04-19T04:56:22.720Z,22.34
2023-04-19T04:57:22.633Z,22.28
2023-04-19T04:58:22.570Z,22.23
2023-04-19T04:59:22.538Z,22.18
2023-04-19T05:00:22.504Z,22.12
2023-04-19T05:01:22.488Z,22.08
2023-04-19T05:02:22.546Z,22.05
2023-04-19T05:03:22.456Z,22.01
2023-04-19T05:04:22.534Z,22.00
2023-04-19T05:05:22.425Z,21.97
2023-04-19T05:06:22.396Z,21.96
2023-04-19T05:07:22.344Z,21.93
2023-04-19T05:08:22.316Z,21.92
2023-04-19T05:09:22.288Z,21.91
2023-04-19T05:10:22.245Z,21.89
2023-04-19T05:11:22.212Z,21.86
2023-04-19T05:12:22.194Z,21.86
2023-04-19T05:13:22.169Z,21.85
2023-04-19T05:14:22.143Z,21.84
2023-04-19T05:15:22.110Z,21.85
2023-04-19T05:16:22.082Z,21.88
2023-04-19T05:17:22.067Z,21.93
2023-04-19T05:18:21.996Z,21.98
2023-04-19T05:19:21.977Z,22.02
2023-04-19T05:20:21.939Z,22.07
2023-04-19T05:21:21.886Z,22.12
2023-04-19T05:22:21.902Z,22.16
2023-04-19T05:23:21.894Z,22.19
2023-04-19T05:24:21.919Z,22.22
2023-04-19T05:25:21.908Z,22.25
2023-04-19T05:26:21.915Z,22.27
2023-04-19T05:27:21.894Z,22.30
2023-04-19T05:28:21.885Z,22.31
2023-04-19T05:29:21.874Z,22.33
2023-04-19T05:30:21.895Z,22.35
2023-04-19T05:31:21.917Z,22.37
2023-04-19T05:32:21.904Z,22.40
2023-04-19T05:33:21.924Z,22.42
2023-04-19T05:34:22.448Z,22.45
2023-04-19T05:35:21.938Z,22.48
2023-04-19T05:36:21.997Z,22.55
2023-04-19T05:37:21.981Z,22.66
2023-04-19T05:38:21.959Z,22.75
2023-04-19T05:39:22.006Z,22.84
2023-04-19T05:40:21.978Z,22.91
2023-04-19T05:41:21.944Z,22.95
2023-04-19T05:42:21.931Z,23.02
2023-04-19T05:43:22.002Z,23.04
2023-04-19T05:44:21.914Z,23.07
2023-04-19T05:45:21.920Z,23.08
2023-04-19T05:46:21.943Z,23.10
2023-04-19T05:47:21.963Z,23.12
2023-04-19T05:48:21.892Z,23.18
2023-04-19T05:49:21.903Z,23.22
2023-04-19T05:50:21.881Z,23.24
2023-04-19T05:51:21.849Z,23.28
2023-04-19T05:52:21.850Z,23.32
2023-04-19T05:53:21.823Z,23.35
2023-04-19T05:54:21.826Z,23.38
2023-04-19T05:55:21.774Z,23.42
2023-04-19T05:56:21.912Z,23.45
2023-04-19T05:57:21.715Z,23.49
2023-04-19T05:58:21.665Z,23.52
2023-04-19T05:59:21.610Z,23.54
2023-04-19T06:00:21.541Z,23.57
2023-04-19T06:01:21.536Z,23.57
2023-04-19T06:02:21.630Z,23.60
2023-04-19T06:03:21.639Z,23.62
2023-04-19T06:04:22.256Z,23.64
2023-04-19T06:05:21.461Z,23.66
2023-04-19T06:06:21.388Z,23.68
2023-04-19T06:07:30.835Z,23.69
2023-04-19T06:08:22.268Z,23.70
2023-04-19T06:09:21.250Z,23.72
2023-04-19T06:10:21.184Z,23.75
2023-04-19T06:11:28.960Z,23.77
2023-04-19T06:12:22.045Z,23.78
2023-04-19T06:13:21.012Z,23.79
2023-04-19T06:14:20.930Z,23.80
2023-04-19T06:15:20.914Z,23.81
2023-04-19T06:16:20.901Z,23.83
2023-04-19T06:17:20.804Z,23.83
2023-04-19T06:18:20.730Z,23.86
2023-04-19T06:19:20.654Z,23.88
2023-04-19T06:20:20.608Z,23.88
2023-04-19T06:21:20.577Z,23.89
2023-04-19T06:22:20.564Z,23.93
2023-04-19T06:23:20.529Z,23.95
2023-04-19T06:24:20.432Z,23.92
2023-04-19T06:25:20.431Z,23.93
2023-04-19T06:26:20.323Z,23.91
2023-04-19T06:27:20.322Z,23.93
2023-04-19T06:28:20.336Z,23.99
2023-04-19T06:29:20.410Z,24.01
2023-04-19T06:30:20.507Z,24.00
2023-04-19T06:31:20.344Z,24.15
2023-04-19T06:32:20.376Z,24.12
2023-04-19T06:33:20.394Z,24.11
2023-04-19T06:34:20.433Z,24.05
2023-04-19T06:35:20.317Z,23.99
2023-04-19T06:36:20.324Z,23.95
2023-04-19T06:37:20.329Z,23.98
2023-04-19T06:38:20.347Z,23.97
2023-04-19T06:39:20.321Z,23.95
2023-04-19T06:40:20.223Z,23.95
2023-04-19T06:41:20.197Z,23.90
2023-04-19T06:42:20.155Z,23.77
2023-04-19T06:43:20.132Z,23.66
2023-04-19T06:44:20.072Z,23.60
2023-04-19T06:45:20.063Z,23.55
2023-04-19T06:46:20.072Z,23.48
2023-04-19T06:47:20.008Z,23.44
2023-04-19T06:48:20.004Z,23.45
2023-04-19T06:49:19.975Z,23.46
2023-04-19T06:50:19.985Z,23.49
2023-04-19T06:51:19.908Z,23.55
2023-04-19T06:52:19.859Z,23.56
2023-04-19T06:53:19.778Z,23.51
2023-04-19T06:54:19.945Z,23.45
2023-04-19T06:55:19.737Z,23.37
2023-04-19T06:56:19.642Z,23.34
2023-04-19T06:57:19.617Z,23.42
2023-04-19T06:58:19.550Z,23.52
2023-04-19T06:59:19.492Z,23.63
2023-04-19T07:00:19.429Z,23.72
2023-04-19T07:01:19.446Z,23.83
2023-04-19T07:02:19.342Z,23.91
2023-04-19T07:03:19.422Z,23.99
2023-04-19T07:04:19.382Z,24.07
2023-04-19T07:05:19.158Z,24.15
2023-04-19T07:06:19.124Z,24.22
2023-04-19T07:07:19.098Z,24.28
2023-04-19T07:08:19.088Z,24.33
2023-04-19T07:09:19.080Z,24.41
2023-04-19T07:10:19.089Z,24.44
2023-04-19T07:11:20.443Z,24.37
2023-04-19T07:12:18.970Z,24.33
2023-04-19T07:13:18.893Z,24.29
2023-04-19T07:14:19.030Z,24.28
2023-04-19T07:15:18.811Z,24.26
2023-04-19T07:16:18.747Z,24.29
2023-04-19T07:17:18.650Z,24.33
2023-04-19T07:18:18.584Z,24.38
2023-04-19T07:19:18.516Z,24.42
2023-04-19T07:20:18.775Z,24.46
2023-04-19T07:21:18.375Z,24.49
2023-04-19T07:22:18.303Z,24.49
2023-04-19T07:23:18.262Z,24.49
2023-04-19T07:24:18.442Z,24.46
2023-04-19T09:44:00.735Z,23.06
2023-04-19T09:45:20.721Z,23.03
2023-04-19T09:45:42.116Z,22.98
2023-04-19T09:46:41.057Z,22.95
2023-04-19T09:47:41.007Z,22.91
2023-04-19T09:48:40.812Z,22.87
2023-04-19T09:49:48.549Z,22.85
2023-04-19T09:50:51.502Z,22.82
2023-04-19T09:51:41.408Z,22.81
2023-04-19T09:52:40.290Z,22.78
2023-04-19T09:53:40.188Z,22.77
2023-04-19T09:54:40.032Z,22.76
2023-04-19T09:55:52.370Z,22.74
2023-04-19T09:56:40.720Z,22.72
2023-04-19T09:57:39.598Z,22.71
2023-04-19T09:58:51.227Z,22.70
2023-04-19T09:59:40.299Z,22.69
2023-04-19T10:00:47.927Z,22.69
2023-04-19T10:01:40.059Z,22.69
2023-04-19T10:02:39.039Z,22.68
2023-04-19T10:03:38.877Z,22.68
2023-04-19T10:05:39.477Z,22.68
2023-04-19T10:06:58.163Z,22.68
2023-04-19T10:07:39.210Z,22.67
2023-04-19T10:08:38.001Z,22.67
2023-04-19T10:09:49.479Z,22.68
2023-04-19T10:10:42.067Z,22.68
2023-04-19T10:11:37.551Z,22.68
2023-04-19T10:12:52.250Z,22.66
2023-04-19T10:13:38.274Z,22.68
2023-04-19T10:14:37.127Z,22.68
2023-04-19T10:15:47.217Z,22.68
2023-04-19T10:16:37.829Z,22.68
2023-04-19T10:17:36.691Z,22.68
2023-04-19T10:18:36.530Z,22.70
2023-04-19T10:19:36.385Z,22.72
2023-04-19T10:20:36.289Z,22.72
2023-04-19T10:21:36.074Z,22.74
2023-04-19T10:22:35.941Z,22.74
2023-04-19T10:23:35.785Z,22.74
2023-04-19T10:24:35.651Z,22.74
2023-04-19T10:25:35.506Z,22.75
2023-04-19T10:26:35.371Z,22.74
2023-04-19T10:27:35.194Z,22.75
2023-04-19T10:28:35.061Z,22.75
2023-04-19T10:29:34.911Z,22.75
2023-04-19T10:30:34.765Z,22.75
2023-04-19T10:31:34.696Z,22.76
2023-04-19T10:32:34.505Z,22.77
2023-04-19T10:33:34.344Z,22.77
2023-04-19T10:34:34.211Z,22.79
2023-04-19T10:35:34.074Z,22.77
2023-04-19T10:36:34.037Z,22.77
2023-04-19T10:37:33.931Z,22.78
2023-04-19T10:38:33.842Z,22.78
2023-04-19T10:39:33.699Z,22.79
2023-04-19T10:40:33.575Z,22.79
2023-04-19T10:41:33.480Z,22.80
2023-04-19T10:42:33.320Z,22.79
2023-04-19T10:43:33.176Z,22.79
2023-04-19T10:44:33.020Z,22.79
2023-04-19T10:45:32.897Z,22.78
2023-04-19T10:46:32.870Z,22.79
2023-04-19T10:47:32.600Z,22.80
2023-04-19T10:48:32.498Z,22.80
2023-04-19T10:49:32.289Z,22.79
2023-04-19T10:50:32.163Z,22.79
2023-04-19T10:51:32.031Z,22.78
2023-04-19T10:52:31.888Z,22.80
2023-04-19T10:53:31.735Z,22.81
2023-04-19T10:54:31.831Z,22.81
2023-04-19T10:55:31.486Z,22.82
2023-04-19T10:56:31.396Z,22.82
2023-04-19T10:57:31.284Z,22.83
2023-04-19T10:58:31.193Z,22.83
2023-04-19T10:59:31.098Z,22.83
2023-04-19T11:00:31.035Z,22.83
2023-04-19T11:01:31.036Z,22.83
2023-04-19T11:02:31.000Z,22.82
2023-04-19T11:03:30.912Z,22.82
2023-04-19T11:04:30.837Z,22.82
2023-04-19T11:05:30.649Z,22.81
2023-04-19T11:06:30.661Z,22.81
2023-04-19T11:07:30.500Z,22.82
2023-04-19T11:08:30.435Z,22.82
2023-04-19T11:09:30.361Z,22.81
2023-04-19T11:10:30.315Z,22.81
2023-04-19T11:11:30.183Z,22.82
2023-04-19T11:12:30.121Z,22.82
2023-04-19T11:13:30.037Z,22.83
2023-04-19T11:14:29.998Z,22.84
2023-04-19T11:15:29.895Z,22.83
2023-04-19T11:16:44.468Z,22.83
2023-04-19T11:17:30.689Z,22.83
2023-04-19T11:18:29.558Z,22.84
2023-04-19T11:19:29.393Z,22.84
2023-04-19T11:20:29.295Z,22.83
2023-04-19T11:21:30.469Z,22.84
2023-04-19T11:22:28.946Z,22.84
2023-04-19T11:23:28.791Z,22.82
2023-04-19T11:24:28.661Z,22.82
2023-04-19T11:25:28.529Z,22.81
2023-04-19T11:26:28.458Z,22.81
2023-04-19T11:27:28.307Z,22.81
2023-04-19T11:28:28.152Z,22.81
2023-04-19T11:29:28.014Z,22.80
2023-04-19T11:30:27.882Z,22.79
2023-04-19T11:31:27.738Z,22.78
2023-04-19T11:32:27.566Z,22.78
2023-04-19T11:33:27.413Z,22.80
2023-04-19T11:34:27.261Z,22.81
2023-04-19T11:35:27.134Z,22.81
2023-04-19T11:36:26.993Z,22.82
2023-04-19T11:37:26.841Z,22.82
2023-04-19T11:38:26.751Z,22.81
2023-04-19T11:39:26.540Z,22.75
2023-04-19T11:40:26.425Z,22.71
2023-04-19T11:41:26.360Z,22.70
2023-04-19T11:42:26.144Z,22.71
2023-04-19T11:43:26.044Z,22.73
2023-04-19T11:44:25.899Z,22.75
2023-04-19T11:45:30.342Z,22.77
2023-04-19T11:46:26.605Z,22.78
2023-04-19T11:47:25.484Z,22.79
2023-04-19T11:48:25.300Z,22.79
2023-04-19T11:49:25.161Z,22.81
2023-04-19T11:50:25.069Z,22.84
2023-04-19T11:51:24.923Z,22.86
2023-04-19T11:52:24.749Z,22.88
2023-04-19T11:53:24.604Z,22.90
2023-04-19T11:54:24.512Z,22.91
2023-04-19T11:55:24.427Z,22.93
2023-04-19T11:56:24.189Z,22.95
2023-04-19T11:57:24.019Z,22.95
2023-04-19T11:58:23.898Z,22.96
2023-04-19T11:59:23.749Z,22.97
2023-04-19T12:00:23.568Z,22.99
2023-04-19T12:01:23.468Z,23.00
2023-04-19T12:02:23.528Z,23.01
2023-04-19T12:03:25.663Z,23.08
2023-04-19T12:04:23.262Z,23.09
2023-04-19T12:05:23.208Z,23.08
2023-04-19T12:06:22.871Z,23.08
2023-04-19T12:07:22.809Z,23.08
2023-04-19T12:08:22.563Z,23.08
2023-04-19T12:09:24.022Z,23.08
2023-04-19T12:10:22.275Z,23.09
2023-04-19T12:11:22.159Z,23.09
2023-04-19T12:12:22.041Z,23.10
2023-04-19T12:13:21.852Z,23.12
2023-04-19T12:14:21.687Z,23.12
2023-04-19T12:15:24.474Z,23.12
2023-04-19T12:16:21.419Z,23.13
2023-04-19T12:17:21.278Z,23.15
2023-04-19T12:18:21.124Z,23.15
2023-04-19T12:19:20.962Z,23.15
2023-04-19T12:20:20.801Z,23.15
2023-04-19T12:21:20.665Z,23.16
2023-04-19T12:22:20.571Z,23.16
2023-04-19T12:23:20.367Z,23.17
2023-04-19T12:24:20.224Z,23.18
2023-04-19T12:25:20.091Z,23.19
2023-04-19T12:26:19.957Z,23.20
2023-04-19T12:27:19.785Z,23.20
2023-04-19T12:28:19.644Z,23.21
2023-04-19T12:29:19.462Z,23.21
2023-04-19T12:30:19.341Z,23.21
2023-04-19T12:31:19.196Z,23.19
2023-04-19T12:32:19.166Z,23.19
2023-04-19T12:33:18.930Z,23.19
2023-04-19T12:34:18.954Z,23.20
2023-04-19T12:35:18.639Z,23.16
2023-04-19T12:36:18.509Z,23.19
2023-04-19T12:37:18.400Z,23.22
2023-04-19T12:38:18.259Z,23.24
2023-04-19T12:39:18.270Z,23.25
2023-04-19T12:40:17.973Z,23.27
2023-04-19T12:41:17.831Z,23.28
2023-04-19T12:42:17.722Z,23.29
2023-04-19T12:43:17.567Z,23.29
2023-04-19T12:44:17.517Z,23.28
2023-04-19T12:45:17.274Z,23.28
2023-04-19T12:46:17.167Z,23.27
2023-04-19T12:47:16.982Z,23.28
2023-04-19T12:48:16.854Z,23.29
2023-04-19T12:49:16.932Z,23.30
2023-04-19T12:50:16.551Z,23.29
2023-04-19T12:51:16.384Z,23.30
2023-04-19T12:52:16.254Z,23.32
2023-04-19T12:53:16.090Z,23.34
2023-04-19T12:54:16.015Z,23.35
2023-04-19T12:55:16.007Z,23.36
2023-04-19T12:56:15.864Z,23.37
2023-04-19T12:57:15.769Z,23.38
2023-04-19T12:58:15.684Z,23.37
2023-04-19T12:59:15.837Z,23.38
2023-04-19T13:00:15.491Z,23.37
2023-04-19T13:01:15.495Z,23.40
2023-04-19T13:02:15.381Z,23.45
2023-04-19T13:03:15.340Z,23.52
2023-04-19T13:04:15.495Z,23.59
2023-04-19T13:05:15.011Z,23.67
2023-04-19T13:06:14.870Z,23.74
2023-04-19T13:07:14.810Z,23.80
2023-04-19T13:08:14.654Z,23.87
2023-04-19T13:09:15.180Z,23.92
2023-04-19T13:10:14.422Z,23.97
2023-04-19T13:11:14.336Z,24.03
2023-04-19T13:12:14.161Z,24.07
2023-04-19T13:13:14.012Z,24.11
2023-04-19T13:14:14.007Z,24.15
2023-04-19T13:15:13.680Z,24.19
2023-04-19T13:16:13.563Z,24.22
2023-04-19T13:17:13.360Z,24.25
2023-04-19T13:18:13.180Z,24.29
2023-04-19T13:19:13.044Z,24.32
2023-04-19T13:20:12.827Z,24.36
2023-04-19T13:21:12.660Z,24.38
2023-04-19T13:22:12.590Z,24.40
2023-04-19T13:23:12.356Z,24.43
2023-04-19T13:24:12.172Z,24.45
2023-04-19T13:25:12.025Z,24.47
2023-04-19T13:26:11.861Z,24.44
2023-04-19T13:27:11.711Z,24.42
2023-04-19T13:28:11.510Z,24.38
2023-04-19T13:29:11.350Z,24.35
2023-04-19T13:30:11.187Z,24.35
2023-04-19T13:31:11.078Z,24.37
2023-04-19T13:32:10.879Z,24.39
2023-04-19T13:33:10.720Z,24.44
2023-04-19T13:34:10.518Z,24.48
2023-04-19T13:35:10.387Z,24.51
2023-04-19T13:36:10.194Z,24.53
2023-04-19T13:37:10.062Z,24.55
2023-04-19T13:38:09.873Z,24.59
2023-04-19T13:39:09.707Z,24.61
2023-04-19T13:40:18.646Z,24.63
2023-04-19T13:41:09.385Z,24.65
2023-04-19T13:42:09.238Z,24.67
2023-04-19T13:43:09.081Z,24.71
2023-04-19T13:44:08.910Z,24.74
2023-04-19T13:45:08.720Z,24.73
2023-04-19T13:46:08.617Z,24.76
2023-04-19T13:47:09.055Z,24.77
2023-04-19T13:48:08.315Z,24.78
2023-04-19T13:49:08.126Z,24.80
2023-04-19T13:50:07.894Z,24.81
2023-04-19T13:51:07.741Z,24.83
2023-04-19T13:52:07.588Z,24.85
2023-04-19T13:53:07.406Z,24.86
2023-04-19T13:54:07.245Z,24.88
2023-04-19T13:55:07.076Z,24.90
2023-04-19T13:56:08.369Z,24.90
2023-04-19T13:57:06.802Z,24.89
2023-04-19T13:58:06.582Z,24.80
2023-04-19T13:59:06.615Z,24.71
2023-04-19T14:00:06.293Z,24.63
2023-04-19T14:01:06.160Z,24.56
2023-04-19T14:02:06.056Z,24.49
2023-04-19T14:03:05.888Z,24.44
2023-04-19T14:04:05.793Z,24.39
2023-04-19T14:05:05.491Z,24.37
2023-04-19T14:06:05.314Z,24.36
2023-04-19T14:07:05.170Z,24.39
2023-04-19T14:08:05.005Z,24.44
2023-04-19T14:09:04.858Z,24.48
2023-04-19T14:10:04.724Z,24.55
2023-04-19T14:11:04.527Z,24.60
2023-04-19T14:12:04.383Z,24.63
2023-04-19T14:13:04.308Z,24.68
2023-04-19T14:14:04.060Z,24.71
2023-04-19T14:15:03.926Z,24.76
2023-04-19T14:16:03.804Z,24.80
2023-04-19T14:17:03.648Z,24.82
2023-04-19T14:18:03.558Z,24.83
2023-04-19T14:19:03.348Z,24.79
2023-04-19T14:20:05.666Z,24.74
2023-04-19T14:21:03.040Z,24.70
2023-04-19T14:22:02.911Z,24.64
2023-04-19T14:23:02.767Z,24.58
2023-04-19T14:24:02.619Z,24.53
2023-04-19T14:25:02.538Z,24.49
2023-04-19T14:26:02.252Z,24.46
2023-04-19T14:28:01.971Z,24.41
2023-04-19T14:29:01.851Z,24.38
2023-04-19T14:30:01.644Z,24.35
2023-04-19T14:31:01.511Z,24.34
2023-04-19T14:32:10.251Z,24.31
2023-04-19T14:33:02.179Z,24.30
2023-04-19T14:34:00.986Z,24.28
2023-04-19T14:35:00.852Z,24.27
2023-04-19T14:36:00.686Z,24.25
2023-04-19T14:37:00.518Z,24.24
2023-04-19T14:38:00.371Z,24.22
2023-04-19T14:39:00.197Z,24.20
2023-04-19T14:40:00.041Z,24.19
2023-04-19T14:40:59.890Z,24.17
2023-04-19T14:41:59.759Z,24.17
2023-04-19T14:42:59.563Z,24.16
2023-04-19T14:43:59.409Z,24.15
2023-04-19T14:44:59.234Z,24.15
2023-04-19T14:45:59.091Z,24.13
2023-04-19T14:46:58.995Z,24.12
2023-04-19T14:47:58.823Z,24.11
2023-04-19T14:48:58.609Z,24.10
2023-04-19T14:49:58.475Z,24.08
2023-04-19T14:50:58.290Z,24.08
2023-04-19T14:51:58.139Z,24.07
2023-04-19T14:52:58.023Z,24.06
2023-04-19T14:53:57.827Z,24.07
2023-04-19T14:54:57.713Z,24.06
2023-04-19T14:55:57.502Z,24.06
2023-04-19T14:56:57.336Z,24.05
2023-04-19T14:57:57.199Z,24.04
2023-04-19T14:58:57.043Z,24.05
2023-04-19T14:59:56.873Z,24.04
2023-04-19T15:00:56.744Z,24.02
2023-04-19T15:01:56.720Z,24.02
2023-04-19T15:02:56.549Z,24.01
2023-04-19T15:03:56.399Z,24.00
2023-04-19T15:04:56.319Z,24.00
2023-04-19T15:05:55.893Z,23.99
2023-04-19T15:06:55.728Z,23.99
2023-04-19T15:07:55.601Z,23.98
2023-04-19T15:08:55.443Z,23.98
2023-04-19T15:09:55.271Z,23.98
2023-04-19T15:10:55.121Z,23.96
2023-04-19T15:11:54.977Z,23.96